This is the latest recevied weather packets stored in our database for station/object GAPWX. If no packets are shown the sender has not sent any weather packets the latest 10 day(s).
| Time | Temp. | Humidity | Pressure | Rain* | Wind** | Luminosity | Snow |
|---|---|---|---|---|---|---|---|
| 1778117963 | 17.22° C | 50% | 1019.8 hPa | 0.25 mm | - | - | - |
| 1778117658 | 17.22° C | 50% | 1019.7 hPa | 0.25 mm | - | - | - |
| 1778117055 | 17.78° C | 49% | 1019.6 hPa | 0.25 mm | - | - | - |
| 1778116753 | 17.78° C | 49% | 1019.6 hPa | 0.25 mm | - | - | - |
| 1778116150 | 18.33° C | 49% | 1019.7 hPa | 0.25 mm | - | - | - |
| 1778114948 | 18.33° C | 49% | 1019.5 hPa | 0.25 mm | - | - | - |
| 1778114644 | 18.89° C | 49% | 1019.5 hPa | 0.25 mm | - | - | - |
| 1778112839 | 19.44° C | 47% | 1019.3 hPa | 0.25 mm | - | - | - |
| 1778112234 | 19.44° C | 47% | 1019.2 hPa | 0.25 mm | - | - | - |
| 1778111646 | 19.44° C | 47% | 1019.2 hPa | 0.25 mm | - | - | - |
| 1778111033 | 20° C | 46% | 1019.2 hPa | 0.25 mm | - | - | - |
| 1778110124 | 20° C | 45% | 1019.2 hPa | 0.25 mm | - | - | - |
| 1778109534 | 20° C | 45% | 1019.2 hPa | 0.25 mm | - | - | - |
| 1778108317 | 20° C | 44% | 1019.2 hPa | 0.25 mm | - | - | - |
| 1778107730 | 20° C | 43% | 1019.3 hPa | 0.25 mm | - | - | - |
| 1778105007 | 20° C | 35% | 1019.6 hPa | 0.25 mm | - | - | - |
| 1778103799 | 20° C | 34% | 1019.6 hPa | 0.25 mm | - | - | - |
| 1778098973 | 18.89° C | 36% | 1019.8 hPa | 0.25 mm | - | - | - |
| 1778098672 | 18.89° C | 34% | 1019.9 hPa | 0.25 mm | - | - | - |
| 1778098371 | 18.89° C | 35% | 1020 hPa | 0.25 mm | - | - | - |
| 1778097767 | 18.33° C | 36% | 1020 hPa | 0.25 mm | - | - | - |
| 1778095660 | 17.78° C | 35% | 1020.1 hPa | 0.25 mm | - | - | - |
| 1778095361 | 17.78° C | 39% | 1020.2 hPa | 0.25 mm | - | - | - |
| 1778089333 | 16.67° C | 48% | 1020 hPa | 0 mm | - | - | - |
| 1778089028 | 16.67° C | 47% | 1020 hPa | 0 mm | - | - | - |
* Rain since midnight (hover to see other rain measurements)
** Current wind speed in m/s (hover to see current wind gust speed)